Time;durP1;ratioP1;P1;durP2;ratioP2;P2;SDS_P1;SDS_P2;PMS_P1;PMS_P2;Temp;Humidity;BMP_temperature;BMP_pressure;BME280_temperature;BME280_humidity;BME280_pressure;Samples;Min_cycle;Max_cycle;Signal;HPM_P1;HPM_P2
2023/04/06 00:00:53;;;;;;;10.37;5.03;;;3.00;99.90;;;;;;4988765;28;20426;-75
2023/04/06 00:03:18;;;;;;;6.60;4.70;;;2.90;99.90;;;;;;4987421;28;20517;-75
2023/04/06 00:05:44;;;;;;;6.57;4.50;;;2.90;99.90;;;;;;4987321;28;20996;-75
2023/04/06 00:08:11;;;;;;;7.65;5.18;;;3.00;99.90;;;;;;4988513;28;20415;-75
2023/04/06 00:10:36;;;;;;;7.17;4.10;;;2.90;99.90;;;;;;4987531;28;20461;-75
2023/04/06 00:13:02;;;;;;;7.50;4.70;;;2.90;99.90;;;;;;4988808;28;20414;-76
2023/04/06 00:15:28;;;;;;;6.17;4.60;;;2.90;99.90;;;;;;4988499;28;20810;-76
2023/04/06 00:17:53;;;;;;;6.38;4.03;;;2.80;99.90;;;;;;4988110;28;20410;-73
2023/04/06 00:20:19;;;;;;;6.25;4.60;;;2.80;99.90;;;;;;4988860;28;20418;-75
2023/04/06 00:22:45;;;;;;;6.15;3.88;;;2.70;99.90;;;;;;4988520;28;20410;-74
2023/04/06 00:25:11;;;;;;;8.00;4.18;;;2.80;99.90;;;;;;4987335;28;20508;-75
2023/04/06 00:27:37;;;;;;;5.53;4.30;;;2.70;99.90;;;;;;4986626;28;20790;-75
2023/04/06 00:30:05;;;;;;;5.30;3.90;;;2.80;99.90;;;;;;4988580;28;20457;-76
2023/04/06 00:32:31;;;;;;;5.82;4.07;;;2.80;99.90;;;;;;4988208;28;20423;-74
2023/04/06 00:34:58;;;;;;;6.47;4.68;;;2.70;99.90;;;;;;4987894;28;20436;-74
2023/04/06 00:37:24;;;;;;;7.30;4.55;;;2.70;99.90;;;;;;4986657;28;20406;-74
2023/04/06 00:39:51;;;;;;;5.57;4.80;;;2.60;99.90;;;;;;4986828;28;20766;-74
2023/04/06 00:42:24;;;;;;;5.70;4.80;;;2.60;99.90;;;;;;4987833;28;20410;-76
2023/04/06 00:44:54;;;;;;;5.63;4.77;;;2.50;99.90;;;;;;4986734;28;20982;-73
2023/04/06 00:47:20;;;;;;;7.70;4.60;;;2.40;99.90;;;;;;4987372;28;20425;-74
2023/04/06 00:49:47;;;;;;;5.85;3.90;;;2.50;99.90;;;;;;5004632;28;20516;-73
2023/04/06 00:52:12;;;;;;;7.35;4.88;;;2.40;99.90;;;;;;5008325;28;20424;-74
2023/04/06 00:54:38;;;;;;;7.40;4.40;;;2.40;99.90;;;;;;5006736;28;20409;-76
2023/04/06 00:57:03;;;;;;;5.15;4.20;;;2.50;99.90;;;;;;5006966;28;20838;-74
2023/04/06 00:59:30;;;;;;;4.78;3.95;;;2.40;99.90;;;;;;4989561;28;20421;-73
2023/04/06 01:01:55;;;;;;;7.28;4.45;;;2.40;99.90;;;;;;5005793;28;20412;-74
2023/04/06 01:04:22;;;;;;;6.70;4.33;;;2.30;99.90;;;;;;5007261;28;20421;-75
2023/04/06 01:06:49;;;;;;;6.60;3.90;;;2.30;99.90;;;;;;5006476;28;20785;-74
2023/04/06 01:09:15;;;;;;;5.85;4.40;;;2.30;99.90;;;;;;5006017;28;20415;-73
2023/04/06 01:11:41;;;;;;;5.93;4.65;;;2.30;99.90;;;;;;5006891;28;20421;-73
2023/04/06 01:14:07;;;;;;;4.10;3.47;;;2.30;99.90;;;;;;5006407;28;20416;-75
2023/04/06 01:16:33;;;;;;;4.97;4.05;;;2.30;99.90;;;;;;5007050;28;20447;-74
2023/04/06 01:18:59;;;;;;;5.83;4.33;;;2.30;99.90;;;;;;4996572;28;20520;-73
2023/04/06 01:21:25;;;;;;;8.80;4.47;;;2.20;99.90;;;;;;4987322;28;20931;-73
2023/04/06 01:23:50;;;;;;;8.52;4.57;;;2.20;99.90;;;;;;4986064;28;20975;-74
2023/04/06 01:26:16;;;;;;;7.93;4.18;;;2.10;99.90;;;;;;4986966;28;20513;-74
2023/04/06 01:28:42;;;;;;;6.72;4.53;;;2.10;99.90;;;;;;4986940;28;20454;-75
2023/04/06 01:31:09;;;;;;;7.00;4.22;;;2.10;99.90;;;;;;4987051;28;20442;-74
2023/04/06 01:33:35;;;;;;;9.55;4.05;;;2.20;99.90;;;;;;4986025;28;20459;-75
2023/04/06 01:36:01;;;;;;;4.97;4.38;;;2.20;99.90;;;;;;4987329;28;20425;-75
2023/04/06 01:38:26;;;;;;;9.80;5.00;;;2.20;99.90;;;;;;4987219;28;20782;-73
2023/04/06 01:40:53;;;;;;;5.55;4.45;;;2.20;99.90;;;;;;4987587;28;20410;-74
2023/04/06 01:43:19;;;;;;;8.85;5.35;;;2.20;99.90;;;;;;4987208;28;20409;-75
2023/04/06 01:45:44;;;;;;;9.18;4.95;;;2.20;99.90;;;;;;4986830;28;20422;-74
2023/04/06 01:48:10;;;;;;;5.97;3.83;;;2.20;99.90;;;;;;4992191;28;20420;-74
2023/04/06 01:50:36;;;;;;;5.73;3.77;;;2.20;99.90;;;;;;5006160;28;20412;-77
2023/04/06 01:53:01;;;;;;;6.33;3.83;;;2.20;99.90;;;;;;5005601;28;20503;-76
2023/04/06 01:55:27;;;;;;;6.43;3.93;;;2.20;99.90;;;;;;5006318;28;20484;-76
2023/04/06 01:57:53;;;;;;;8.90;4.57;;;2.20;99.90;;;;;;5005905;28;20409;-75
2023/04/06 02:00:19;;;;;;;7.60;4.67;;;2.20;99.90;;;;;;5006275;28;20419;-74
2023/04/06 02:02:45;;;;;;;5.88;3.80;;;2.10;99.90;;;;;;5006446;28;20432;-74
2023/04/06 02:05:11;;;;;;;7.95;4.63;;;2.10;99.90;;;;;;5005831;28;20791;-76
2023/04/06 02:07:37;;;;;;;6.53;4.45;;;2.10;99.90;;;;;;4998736;28;20430;-72
2023/04/06 02:10:03;;;;;;;6.13;4.00;;;2.10;99.90;;;;;;4986062;28;20421;-73
2023/04/06 02:12:28;;;;;;;6.27;4.37;;;2.10;99.90;;;;;;4988331;28;20520;-74
2023/04/06 02:14:54;;;;;;;8.60;4.63;;;2.00;99.90;;;;;;4989054;28;20446;-76
2023/04/06 02:17:20;;;;;;;5.20;4.22;;;2.00;99.90;;;;;;4989756;28;20919;-74
2023/04/06 02:19:46;;;;;;;7.75;4.80;;;2.00;99.90;;;;;;4987384;28;20417;-73
2023/04/06 02:22:11;;;;;;;6.65;4.82;;;2.00;99.90;;;;;;4987052;28;20421;-76
2023/04/06 02:24:37;;;;;;;5.65;4.63;;;2.00;99.90;;;;;;4985295;28;20446;-75
2023/04/06 02:27:03;;;;;;;5.60;4.55;;;2.00;99.90;;;;;;4987298;28;20426;-73
2023/04/06 02:29:28;;;;;;;7.25;4.70;;;1.90;99.90;;;;;;4989173;28;21000;-73
2023/04/06 02:31:54;;;;;;;5.87;4.37;;;1.90;99.90;;;;;;4991165;28;20418;-74
2023/04/06 02:34:20;;;;;;;8.07;4.67;;;1.90;99.90;;;;;;4991756;28;20410;-74
2023/04/06 02:36:46;;;;;;;7.53;4.10;;;1.90;99.90;;;;;;4973182;28;20434;-75
2023/04/06 02:39:14;;;;;;;7.18;4.18;;;1.90;99.90;;;;;;5008180;28;20439;-73
2023/04/06 02:41:40;;;;;;;7.25;4.40;;;1.90;99.90;;;;;;5010922;28;20626;-72
2023/04/06 02:44:09;;;;;;;5.87;4.70;;;1.80;99.90;;;;;;5012886;28;20478;-77
2023/04/06 02:46:35;;;;;;;6.10;4.45;;;1.80;99.90;;;;;;5012923;28;20437;-72
2023/04/06 02:49:00;;;;;;;8.98;4.72;;;1.80;99.90;;;;;;5012486;28;20413;-73
2023/04/06 02:51:27;;;;;;;6.87;4.97;;;1.80;99.90;;;;;;5012988;28;20412;-74
2023/04/06 02:53:53;;;;;;;6.20;4.82;;;1.80;99.90;;;;;;5011515;28;20803;-74
2023/04/06 02:56:20;;;;;;;7.45;5.05;;;1.90;99.90;;;;;;5009612;28;20474;-74
2023/04/06 02:58:45;;;;;;;7.57;4.85;;;1.80;99.90;;;;;;5008640;28;20879;-74
2023/04/06 03:01:11;;;;;;;7.10;4.68;;;1.80;99.90;;;;;;5009525;28;20416;-75
2023/04/06 03:03:36;;;;;;;7.47;4.75;;;1.80;99.90;;;;;;5009274;28;21012;-74
2023/04/06 03:06:02;;;;;;;5.47;4.78;;;1.70;99.90;;;;;;5007918;28;20429;-73
2023/04/06 03:08:28;;;;;;;10.52;5.55;;;1.70;99.90;;;;;;4996231;28;20427;-74
2023/04/06 03:10:54;;;;;;;7.43;4.60;;;1.80;99.90;;;;;;4990408;28;20441;-76
2023/04/06 03:13:20;;;;;;;7.70;4.80;;;1.70;99.90;;;;;;4990191;28;20489;-75
2023/04/06 03:15:46;;;;;;;7.47;4.80;;;1.70;99.90;;;;;;4989398;28;20418;-73
2023/04/06 03:18:12;;;;;;;5.25;4.53;;;1.70;99.90;;;;;;4989912;28;20489;-73
2023/04/06 03:20:37;;;;;;;8.52;5.22;;;1.70;99.90;;;;;;4989496;28;20446;-74
2023/04/06 03:23:03;;;;;;;8.73;5.20;;;1.70;99.90;;;;;;4988966;28;20567;-76
2023/04/06 03:25:30;;;;;;;7.57;5.13;;;1.60;99.90;;;;;;4988063;28;20510;-73
2023/04/06 03:27:56;;;;;;;7.38;5.38;;;1.70;99.90;;;;;;4989414;28;21062;-74
2023/04/06 03:30:22;;;;;;;7.38;5.15;;;1.60;99.90;;;;;;4989422;28;20410;-74
2023/04/06 03:32:47;;;;;;;9.00;5.05;;;1.60;99.90;;;;;;4989006;28;20418;-75
2023/04/06 03:35:13;;;;;;;8.38;4.90;;;1.50;99.90;;;;;;4989442;28;20414;-75
2023/04/06 03:37:39;;;;;;;6.35;5.15;;;1.50;99.90;;;;;;4994690;28;20449;-76
2023/04/06 03:40:06;;;;;;;8.07;5.57;;;1.50;99.90;;;;;;5007343;28;20422;-74
2023/04/06 03:42:32;;;;;;;8.48;5.70;;;1.50;99.90;;;;;;5009380;28;20826;-75
2023/04/06 03:44:59;;;;;;;6.57;5.13;;;1.50;99.90;;;;;;5007353;28;20546;-72
2023/04/06 03:47:25;;;;;;;8.15;5.13;;;1.40;99.90;;;;;;5007501;28;20926;-74
2023/04/06 03:49:50;;;;;;;5.78;5.03;;;1.50;99.90;;;;;;5007178;28;20513;-73
2023/04/06 03:52:16;;;;;;;8.25;5.35;;;1.40;99.90;;;;;;5008403;28;20480;-74
2023/04/06 03:54:42;;;;;;;8.93;5.03;;;1.40;99.90;;;;;;5007322;28;20444;-75
2023/04/06 03:57:07;;;;;;;7.73;5.30;;;1.40;99.90;;;;;;5008551;28;20436;-75
2023/04/06 03:59:33;;;;;;;6.60;5.60;;;1.40;99.90;;;;;;5007292;28;20456;-74
2023/04/06 04:01:59;;;;;;;9.37;5.87;;;1.40;99.90;;;;;;5007196;28;20459;-77
2023/04/06 04:04:24;;;;;;;7.97;5.63;;;1.30;99.90;;;;;;5008406;28;20487;-74
2023/04/06 04:06:50;;;;;;;9.87;6.40;;;1.30;99.90;;;;;;5005288;28;20495;-73
2023/04/06 04:09:16;;;;;;;8.30;5.90;;;1.30;99.90;;;;;;4987924;28;20411;-76
2023/04/06 04:11:42;;;;;;;8.53;6.40;;;1.30;99.90;;;;;;4988283;28;20449;-75
2023/04/06 04:14:07;;;;;;;7.72;5.65;;;1.30;99.90;;;;;;4988525;28;20418;-74
2023/04/06 04:16:33;;;;;;;11.52;6.55;;;1.30;99.90;;;;;;5004052;28;21057;-74
2023/04/06 04:18:59;;;;;;;5.95;5.43;;;1.30;99.90;;;;;;4987239;28;20429;-74
2023/04/06 04:21:25;;;;;;;8.18;6.43;;;1.20;99.90;;;;;;4988585;28;20411;-74
2023/04/06 04:23:52;;;;;;;8.77;6.00;;;1.20;99.90;;;;;;4985765;28;20421;-76
2023/04/06 04:26:18;;;;;;;8.70;6.75;;;1.20;99.90;;;;;;4988313;28;20436;-74
2023/04/06 04:28:44;;;;;;;8.43;6.47;;;1.20;99.90;;;;;;4988385;28;20893;-74
2023/04/06 04:31:10;;;;;;;9.52;7.25;;;1.20;99.90;;;;;;4989631;28;20456;-75
2023/04/06 04:33:35;;;;;;;10.35;6.18;;;1.10;99.90;;;;;;4988389;28;20422;-76
2023/04/06 04:36:01;;;;;;;6.82;5.75;;;1.20;99.90;;;;;;4989251;28;20833;-74
2023/04/06 04:38:27;;;;;;;8.47;6.80;;;1.10;99.90;;;;;;4988042;28;20442;-74
2023/04/06 04:40:53;;;;;;;10.03;6.77;;;1.20;99.90;;;;;;4988129;28;20782;-75
2023/04/06 04:43:18;;;;;;;8.17;6.80;;;1.10;99.90;;;;;;4987905;28;20418;-74
2023/04/06 04:45:44;;;;;;;7.68;6.40;;;1.10;99.90;;;;;;4987555;28;20426;-73
2023/04/06 04:48:10;;;;;;;8.50;6.90;;;1.10;99.90;;;;;;4987920;28;20517;-73
2023/04/06 04:50:35;;;;;;;9.27;6.93;;;1.20;99.90;;;;;;4987627;28;20741;-76
2023/04/06 04:53:01;;;;;;;7.78;6.10;;;1.10;99.90;;;;;;4986657;28;20493;-74
2023/04/06 04:55:29;;;;;;;9.33;7.17;;;1.10;99.90;;;;;;4987612;28;20410;-74
2023/04/06 04:57:54;;;;;;;9.48;7.18;;;1.10;99.90;;;;;;4986378;28;20540;-74
2023/04/06 05:00:20;;;;;;;10.90;6.75;;;1.20;99.90;;;;;;4987693;28;20493;-74
2023/04/06 05:02:46;;;;;;;9.23;6.10;;;1.10;99.90;;;;;;4999983;28;20440;-74
2023/04/06 05:05:12;;;;;;;8.33;6.67;;;1.10;99.90;;;;;;5006536;28;20452;-73
2023/04/06 05:07:37;;;;;;;10.23;6.97;;;1.10;99.90;;;;;;5005927;28;20803;-72
2023/04/06 05:10:03;;;;;;;10.20;6.78;;;1.20;99.90;;;;;;5008323;28;20427;-73
2023/04/06 05:12:29;;;;;;;8.70;6.07;;;1.10;99.90;;;;;;5007983;28;20412;-73
2023/04/06 05:14:54;;;;;;;8.45;7.03;;;1.20;99.90;;;;;;5005963;28;20495;-73
2023/04/06 05:17:20;;;;;;;8.00;6.73;;;1.20;99.90;;;;;;5008566;28;20421;-74
2023/04/06 05:19:46;;;;;;;10.63;6.30;;;1.30;99.90;;;;;;5009151;28;20480;-73
2023/04/06 05:22:14;;;;;;;10.57;6.80;;;1.30;99.90;;;;;;5009976;28;20442;-73
2023/04/06 05:24:40;;;;;;;10.00;6.80;;;1.30;99.90;;;;;;5006787;28;20405;-73
2023/04/06 05:27:05;;;;;;;9.90;7.20;;;1.40;99.90;;;;;;5007264;28;20955;-74
2023/04/06 05:29:31;;;;;;;9.23;7.45;;;1.70;99.90;;;;;;5005839;28;20420;-73
2023/04/06 05:31:57;;;;;;;8.70;6.57;;;2.00;99.90;;;;;;5003561;28;20596;-75
2023/04/06 05:34:23;;;;;;;9.77;6.87;;;2.20;99.90;;;;;;5004608;28;20508;-74
2023/04/06 05:36:48;;;;;;;9.33;5.97;;;2.20;99.90;;;;;;5006264;28;20504;-72
2023/04/06 05:39:14;;;;;;;10.40;6.87;;;2.10;99.90;;;;;;4999333;28;20481;-74
2023/04/06 05:41:40;;;;;;;8.38;6.50;;;2.60;99.90;;;;;;4989313;28;20464;-74
2023/04/06 05:44:06;;;;;;;8.75;6.47;;;2.20;99.90;;;;;;5001671;28;20752;-75
2023/04/06 05:46:31;;;;;;;8.45;7.00;;;2.10;99.90;;;;;;5009828;28;20440;-74
2023/04/06 05:48:57;;;;;;;9.43;7.20;;;2.00;99.90;;;;;;5008876;28;20409;-74
2023/04/06 05:51:23;;;;;;;8.15;6.75;;;2.10;99.90;;;;;;4999997;28;20426;-72
2023/04/06 05:53:48;;;;;;;7.37;6.57;;;2.20;99.90;;;;;;5007566;28;20465;-73
2023/04/06 05:56:14;;;;;;;9.63;6.63;;;2.30;99.90;;;;;;5008561;28;20776;-73
2023/04/06 05:58:40;;;;;;;8.67;6.83;;;2.20;99.90;;;;;;5004334;28;21098;-73
2023/04/06 06:01:05;;;;;;;13.33;9.73;;;2.30;99.90;;;;;;5004628;28;20452;-73
2023/04/06 06:03:31;;;;;;;12.70;9.23;;;2.40;99.90;;;;;;5003900;28;20401;-74
2023/04/06 06:06:01;;;;;;;11.30;8.87;;;2.30;99.90;;;;;;5004360;28;20607;-74
2023/04/06 06:08:27;;;;;;;13.27;9.27;;;2.50;99.90;;;;;;5003531;28;20981;-73
2023/04/06 06:10:53;;;;;;;16.60;9.95;;;2.70;99.90;;;;;;5004402;28;20443;-73
2023/04/06 06:13:19;;;;;;;23.38;11.65;;;2.70;99.90;;;;;;5004215;28;20416;-74
2023/04/06 06:15:44;;;;;;;30.80;13.15;;;2.80;99.90;;;;;;5002853;28;20417;-73
2023/04/06 06:18:10;;;;;;;24.05;13.65;;;2.70;99.90;;;;;;5005059;28;20420;-73
2023/04/06 06:20:36;;;;;;;33.50;18.55;;;2.80;99.90;;;;;;5004599;28;20415;-73
2023/04/06 06:23:01;;;;;;;31.75;18.77;;;2.90;99.90;;;;;;5004107;28;20413;-73
2023/04/06 06:25:27;;;;;;;34.08;17.38;;;3.10;99.90;;;;;;5003750;28;20629;-74
2023/04/06 06:27:52;;;;;;;22.98;13.15;;;3.60;99.90;;;;;;5002501;28;20502;-74
2023/04/06 06:30:18;;;;;;;25.88;15.80;;;3.80;99.90;;;;;;5004533;28;20396;-74
2023/04/06 06:32:44;;;;;;;30.73;12.77;;;4.00;99.90;;;;;;5003876;28;20799;-73
2023/04/06 06:35:10;;;;;;;17.92;10.05;;;3.90;99.90;;;;;;5004446;28;20420;-73
2023/04/06 06:37:35;;;;;;;17.63;11.33;;;4.00;99.90;;;;;;4986465;28;20409;-75
2023/04/06 06:40:01;;;;;;;17.10;9.13;;;4.10;99.90;;;;;;5004951;28;20903;-73
2023/04/06 06:42:26;;;;;;;13.30;9.53;;;3.90;99.90;;;;;;5004164;28;20396;-73
2023/04/06 06:44:54;;;;;;;15.53;9.20;;;3.90;99.90;;;;;;5003694;28;20871;-74
2023/04/06 06:47:19;;;;;;;11.27;7.95;;;4.10;99.90;;;;;;5004202;28;20756;-73
2023/04/06 06:49:45;;;;;;;10.05;7.70;;;4.40;99.90;;;;;;5004105;28;20405;-73
2023/04/06 06:52:11;;;;;;;14.65;8.70;;;4.80;99.90;;;;;;5002213;28;20424;-73
2023/04/06 06:54:36;;;;;;;11.77;8.20;;;5.00;99.90;;;;;;5003750;28;20409;-75
2023/04/06 06:57:02;;;;;;;14.48;9.40;;;5.00;99.90;;;;;;5004163;28;20413;-73
2023/04/06 06:59:28;;;;;;;10.35;8.35;;;5.70;99.90;;;;;;5004520;28;20452;-74
2023/04/06 07:01:53;;;;;;;10.50;8.30;;;6.10;99.90;;;;;;5003011;28;20504;-74
2023/04/06 07:04:19;;;;;;;10.85;8.65;;;6.80;99.90;;;;;;5002499;28;20422;-73
2023/04/06 07:06:45;;;;;;;10.98;8.20;;;6.10;99.90;;;;;;5002267;28;20448;-73
2023/04/06 07:09:10;;;;;;;9.98;7.55;;;5.90;99.90;;;;;;5003780;28;20491;-73
2023/04/06 07:11:36;;;;;;;9.48;7.75;;;5.40;99.90;;;;;;5002510;28;20491;-74
2023/04/06 07:14:02;;;;;;;11.95;7.97;;;5.40;99.90;;;;;;5004604;28;20471;-73
2023/04/06 07:16:28;;;;;;;10.80;8.23;;;5.30;99.90;;;;;;5006921;28;20421;-73
2023/04/06 07:18:53;;;;;;;12.60;7.73;;;5.40;99.90;;;;;;5008023;28;20886;-73
2023/04/06 07:21:19;;;;;;;12.13;8.00;;;5.50;99.90;;;;;;5007831;28;20400;-72
2023/04/06 07:23:44;;;;;;;10.40;8.52;;;5.60;99.90;;;;;;5006695;28;20416;-73
2023/04/06 07:26:10;;;;;;;10.90;8.15;;;5.80;99.90;;;;;;5007316;28;20761;-73
2023/04/06 07:28:36;;;;;;;9.48;7.72;;;5.80;99.90;;;;;;5007165;28;20459;-75
2023/04/06 07:31:01;;;;;;;10.77;7.82;;;6.00;99.90;;;;;;5007803;28;20413;-74
2023/04/06 07:33:29;;;;;;;10.60;7.95;;;6.20;99.90;;;;;;5007305;28;20401;-74
2023/04/06 07:35:56;;;;;;;10.52;7.95;;;6.30;99.90;;;;;;5005724;28;20500;-74
2023/04/06 07:38:22;;;;;;;15.27;8.63;;;6.40;99.90;;;;;;5006915;28;20411;-75
2023/04/06 07:40:47;;;;;;;10.50;7.73;;;6.50;99.90;;;;;;5007341;28;20488;-73
2023/04/06 07:43:13;;;;;;;12.13;7.80;;;6.40;99.90;;;;;;5007142;28;20464;-74
2023/04/06 07:45:39;;;;;;;10.73;7.83;;;6.80;99.90;;;;;;5006881;28;20425;-73
2023/04/06 07:48:05;;;;;;;11.37;8.50;;;6.70;99.90;;;;;;5007882;28;20527;-74
2023/04/06 07:50:30;;;;;;;10.67;7.87;;;7.00;99.90;;;;;;5007934;28;20783;-73
2023/04/06 07:52:57;;;;;;;10.33;8.20;;;7.20;99.90;;;;;;5006574;28;20462;-74
2023/04/06 07:55:23;;;;;;;11.82;8.45;;;7.40;99.90;;;;;;5007283;28;20496;-74
2023/04/06 07:57:48;;;;;;;10.40;7.63;;;7.30;99.90;;;;;;5007062;28;20795;-74
2023/04/06 08:00:14;;;;;;;10.80;7.37;;;7.60;99.90;;;;;;5006969;28;20651;-73
2023/04/06 08:02:40;;;;;;;8.95;7.70;;;7.70;99.90;;;;;;5005598;28;20405;-74
2023/04/06 08:05:07;;;;;;;10.13;7.90;;;8.00;99.90;;;;;;5006499;28;20915;-75
2023/04/06 08:07:32;;;;;;;9.48;8.38;;;8.00;99.90;;;;;;5006114;28;20889;-73
2023/04/06 08:09:58;;;;;;;10.40;8.83;;;8.40;99.90;;;;;;5006715;28;20512;-72
2023/04/06 08:12:23;;;;;;;9.40;7.93;;;8.40;99.90;;;;;;5006444;28;20737;-74
2023/04/06 08:14:49;;;;;;;11.37;9.43;;;8.20;99.90;;;;;;5004979;28;20780;-74
2023/04/06 08:17:15;;;;;;;10.52;7.88;;;8.30;99.90;;;;;;5005337;28;20919;-73
2023/04/06 08:19:44;;;;;;;10.82;8.40;;;8.30;99.90;;;;;;5006374;28;20408;-73
2023/04/06 08:22:10;;;;;;;10.45;8.20;;;8.30;99.90;;;;;;5005409;28;20421;-74
2023/04/06 08:24:36;;;;;;;11.18;7.82;;;8.40;99.90;;;;;;5006002;28;20408;-76
2023/04/06 08:27:01;;;;;;;12.13;8.52;;;8.50;99.90;;;;;;5005815;28;20687;-74
2023/04/06 08:29:27;;;;;;;11.15;8.57;;;8.50;99.90;;;;;;5006648;28;20408;-74
2023/04/06 08:31:53;;;;;;;11.57;8.45;;;8.70;99.90;;;;;;5004654;28;20737;-74
2023/04/06 08:34:18;;;;;;;9.97;7.90;;;8.50;99.90;;;;;;5005049;28;20408;-74
2023/04/06 08:36:45;;;;;;;13.35;8.63;;;8.40;99.90;;;;;;5005947;28;20424;-73
2023/04/06 08:39:11;;;;;;;10.95;8.75;;;8.50;99.90;;;;;;5004400;28;20496;-74
2023/04/06 08:41:37;;;;;;;14.77;11.52;;;8.80;99.90;;;;;;5006102;28;20507;-73
2023/04/06 08:44:03;;;;;;;14.05;9.32;;;8.80;99.90;;;;;;5004674;28;20409;-73
2023/04/06 08:46:30;;;;;;;11.55;9.20;;;9.00;99.90;;;;;;5004498;28;20843;-73
2023/04/06 08:49:03;;;;;;;11.07;8.98;;;9.20;99.90;;;;;;5006107;28;20830;-72
2023/04/06 08:51:32;;;;;;;11.20;9.90;;;9.60;99.90;;;;;;5006269;28;20452;-73
2023/04/06 08:53:59;;;;;;;12.17;10.07;;;9.40;99.90;;;;;;5004645;28;20785;-75
2023/04/06 08:56:27;;;;;;;10.85;8.95;;;9.80;99.90;;;;;;5004264;28;20424;-76
2023/04/06 08:58:54;;;;;;;12.63;9.93;;;10.10;99.90;;;;;;5005777;28;20609;-74
2023/04/06 09:01:30;;;;;;;12.30;9.77;;;10.00;99.90;;;;;;5005755;28;20444;-74
2023/04/06 09:04:00;;;;;;;13.02;10.75;;;9.70;99.90;;;;;;5005929;28;20535;-75
2023/04/06 09:06:30;;;;;;;12.95;10.10;;;9.90;99.90;;;;;;5004558;28;20439;-74
2023/04/06 09:08:56;;;;;;;14.27;10.95;;;9.80;99.90;;;;;;5004688;28;20477;-74
2023/04/06 09:11:22;;;;;;;15.95;11.18;;;10.10;99.90;;;;;;5005524;28;20424;-75
2023/04/06 09:13:50;;;;;;;13.30;11.10;;;10.20;99.90;;;;;;5005414;28;20787;-75
2023/04/06 09:16:17;;;;;;;15.82;12.13;;;9.90;99.90;;;;;;5005492;28;20413;-75
2023/04/06 09:18:42;;;;;;;14.60;11.75;;;10.40;99.90;;;;;;5005060;28;20933;-75
2023/04/06 09:21:09;;;;;;;17.42;13.30;;;10.20;99.90;;;;;;5005468;28;20413;-75
2023/04/06 09:23:35;;;;;;;16.30;12.68;;;10.20;99.90;;;;;;5003599;28;20419;-75
2023/04/06 09:26:17;;;;;;;18.00;13.27;;;10.40;99.90;;;;;;5006110;28;20432;-73
2023/04/06 09:28:57;;;;;;;16.52;12.45;;;10.60;99.90;;;;;;5004005;28;20416;-74
2023/04/06 09:31:25;;;;;;;17.48;14.45;;;10.30;99.90;;;;;;5005411;28;20401;-74
2023/04/06 09:33:54;;;;;;;17.87;13.40;;;10.40;99.90;;;;;;5004809;28;20412;-74
2023/04/06 09:36:28;;;;;;;17.92;13.85;;;10.50;99.90;;;;;;5005411;28;20783;-74
2023/04/06 09:38:59;;;;;;;16.02;13.68;;;10.70;99.90;;;;;;5003781;28;20424;-74
2023/04/06 09:41:33;;;;;;;18.35;14.10;;;11.00;99.90;;;;;;5005298;28;20506;-74
2023/04/06 09:44:04;;;;;;;17.60;13.55;;;11.10;99.90;;;;;;5003673;28;20420;-73
2023/04/06 09:46:42;;;;;;;19.95;14.25;;;11.20;99.90;;;;;;5005102;28;20429;-76
2023/04/06 09:49:09;;;;;;;20.87;13.73;;;11.30;99.90;;;;;;4987588;28;20933;-74
2023/04/06 09:51:38;;;;;;;19.70;15.50;;;11.30;99.90;;;;;;5005479;28;20471;-75
2023/04/06 09:54:05;;;;;;;20.52;15.18;;;11.30;99.90;;;;;;4987374;28;20892;-74
2023/04/06 09:56:38;;;;;;;20.15;15.20;;;11.40;99.90;;;;;;5003858;28;20417;-74
2023/04/06 09:59:12;;;;;;;18.08;15.13;;;11.50;99.90;;;;;;5003539;28;20440;-74
2023/04/06 10:01:39;;;;;;;18.98;14.18;;;11.50;99.90;;;;;;5004438;28;20405;-74
2023/04/06 10:04:32;;;;;;;17.25;14.68;;;11.80;99.90;;;;;;5005223;28;20407;-74
2023/04/06 10:06:59;;;;;;;18.75;15.23;;;11.60;99.90;;;;;;5004092;28;20502;-73
2023/04/06 10:09:35;;;;;;;18.50;15.38;;;11.80;99.90;;;;;;5004638;28;20416;-73
2023/04/06 10:12:05;;;;;;;22.42;15.93;;;11.80;99.90;;;;;;5005009;28;20460;-74
2023/04/06 10:14:37;;;;;;;21.70;15.60;;;12.10;99.90;;;;;;5004968;28;20412;-75
2023/04/06 10:17:05;;;;;;;25.80;17.10;;;11.80;99.90;;;;;;5004806;28;20417;-75
2023/04/06 10:20:08;;;;;;;20.65;16.20;;;11.90;99.90;;;;;;4987243;28;20416;-75
2023/04/06 10:22:50;;;;;;;20.40;15.73;;;12.10;99.90;;;;;;5002202;28;20468;-76
2023/04/06 10:25:16;;;;;;;21.40;16.85;;;12.20;99.90;;;;;;5004247;28;20479;-75
2023/04/06 10:27:42;;;;;;;20.23;16.70;;;12.30;99.90;;;;;;5002992;28;20404;-75
2023/04/06 10:30:07;;;;;;;21.57;16.27;;;12.40;99.90;;;;;;5004494;28;20443;-76
2023/04/06 10:32:38;;;;;;;19.60;16.77;;;12.40;99.90;;;;;;5004942;28;20888;-75
2023/04/06 10:35:07;;;;;;;21.05;17.45;;;12.60;99.90;;;;;;5004869;28;20413;-75
2023/04/06 10:37:50;;;;;;;20.95;16.48;;;12.40;99.90;;;;;;4986526;28;20483;-75
2023/04/06 10:40:21;;;;;;;21.05;17.75;;;12.50;99.90;;;;;;5005183;28;20408;-75
2023/04/06 10:42:47;;;;;;;21.38;16.30;;;12.30;99.90;;;;;;5002784;28;20421;-75
2023/04/06 10:45:23;;;;;;;21.80;16.77;;;12.10;99.90;;;;;;5004133;28;20428;-75
2023/04/06 10:47:52;;;;;;;24.02;19.27;;;12.10;99.90;;;;;;5003987;28;20600;-75
2023/04/06 10:50:18;;;;;;;32.20;17.52;;;12.10;99.90;;;;;;5005377;28;20409;-75
2023/04/06 10:52:47;;;;;;;26.38;17.90;;;12.00;99.90;;;;;;5006927;28;20458;-75
2023/04/06 10:55:16;;;;;;;23.67;17.50;;;11.90;99.90;;;;;;5007997;28;20413;-74
2023/04/06 10:57:42;;;;;;;21.02;17.17;;;12.10;99.90;;;;;;5007804;28;20859;-75
2023/04/06 11:00:09;;;;;;;21.43;18.47;;;12.30;99.90;;;;;;5008796;28;20508;-75
2023/04/06 11:02:37;;;;;;;23.25;17.60;;;12.00;99.90;;;;;;5008313;28;20930;-75
2023/04/06 11:05:03;;;;;;;24.10;18.98;;;12.20;99.90;;;;;;5008731;28;20417;-75
2023/04/06 11:07:30;;;;;;;22.85;18.90;;;12.20;99.90;;;;;;5006803;28;20512;-75
2023/04/06 11:09:56;;;;;;;26.58;19.48;;;12.30;99.90;;;;;;5008012;28;20412;-75
2023/04/06 11:12:27;;;;;;;26.25;17.55;;;12.30;99.90;;;;;;5006753;28;20412;-75
2023/04/06 11:15:03;;;;;;;23.25;18.45;;;12.30;99.90;;;;;;5006189;28;20431;-75
2023/04/06 11:17:37;;;;;;;22.55;18.48;;;12.40;99.90;;;;;;5007504;28;20494;-75
2023/04/06 11:20:04;;;;;;;21.63;17.52;;;12.50;99.90;;;;;;5008095;28;20491;-75
2023/04/06 11:22:31;;;;;;;22.95;18.17;;;12.30;99.90;;;;;;5006689;28;20614;-75
2023/04/06 11:25:07;;;;;;;22.60;18.65;;;12.40;99.90;;;;;;5007054;28;20413;-75
2023/04/06 11:27:34;;;;;;;20.90;18.17;;;12.40;99.90;;;;;;5007998;28;20874;-74
2023/04/06 11:30:00;;;;;;;23.52;19.13;;;12.60;99.90;;;;;;5006911;28;20926;-75
2023/04/06 11:32:26;;;;;;;24.27;19.13;;;12.60;99.90;;;;;;5007225;28;20416;-75
2023/04/06 11:34:52;;;;;;;23.33;18.47;;;12.90;99.90;;;;;;5007097;28;20413;-75
2023/04/06 11:37:18;;;;;;;22.67;19.17;;;12.60;99.90;;;;;;5005300;28;20419;-75
2023/04/06 11:39:47;;;;;;;21.85;17.90;;;12.50;99.90;;;;;;4989674;28;20471;-75
2023/04/06 11:42:20;;;;;;;20.90;17.15;;;12.70;99.90;;;;;;5007224;28;20487;-74
2023/04/06 11:44:46;;;;;;;20.00;17.23;;;12.80;99.90;;;;;;5005859;28;20947;-75
2023/04/06 11:47:12;;;;;;;26.92;18.42;;;12.90;99.90;;;;;;5006648;28;20804;-73
2023/04/06 11:49:40;;;;;;;22.75;17.30;;;13.20;99.90;;;;;;5006696;28;20408;-74
2023/04/06 11:52:16;;;;;;;20.95;17.58;;;12.90;99.90;;;;;;5006153;28;20505;-75
2023/04/06 11:54:42;;;;;;;24.70;18.80;;;13.00;99.90;;;;;;5005074;28;20409;-74
2023/04/06 11:57:08;;;;;;;24.70;19.33;;;12.80;99.90;;;;;;5006942;28;20417;-75
2023/04/06 11:59:34;;;;;;;27.60;19.15;;;13.00;99.90;;;;;;5006886;28;20415;-75
2023/04/06 12:02:04;;;;;;;24.73;18.95;;;12.80;99.90;;;;;;5006591;28;20946;-74
2023/04/06 12:04:30;;;;;;;22.38;18.52;;;13.10;99.90;;;;;;5006295;28;20409;-74
2023/04/06 12:06:56;;;;;;;25.35;19.88;;;13.20;99.90;;;;;;5005644;28;20567;-75
2023/04/06 12:09:21;;;;;;;24.48;19.90;;;13.40;99.90;;;;;;5005575;28;20496;-75
2023/04/06 12:11:47;;;;;;;25.70;19.30;;;13.40;99.90;;;;;;5005415;28;20508;-75
2023/04/06 12:14:13;;;;;;;23.55;19.27;;;13.30;99.90;;;;;;5005325;28;20959;-75
2023/04/06 12:16:40;;;;;;;25.23;19.27;;;13.20;99.90;;;;;;5006369;28;20405;-74
2023/04/06 12:19:06;;;;;;;24.95;20.05;;;13.60;99.90;;;;;;5006739;28;20451;-76
2023/04/06 12:21:33;;;;;;;23.20;18.60;;;13.30;99.90;;;;;;5006071;28;20784;-75
2023/04/06 12:24:00;;;;;;;29.02;20.67;;;13.50;99.90;;;;;;5006033;28;20453;-75
2023/04/06 12:26:26;;;;;;;22.40;18.15;;;13.70;99.90;;;;;;5006333;28;20515;-74
2023/04/06 12:28:52;;;;;;;20.55;16.45;;;13.80;99.90;;;;;;5005938;28;20899;-75
2023/04/06 12:31:19;;;;;;;20.45;17.05;;;13.60;99.90;;;;;;5006556;28;20431;-75
2023/04/06 12:33:49;;;;;;;22.92;16.05;;;13.80;99.90;;;;;;4988192;28;20668;-75
2023/04/06 12:36:18;;;;;;;23.52;19.42;;;13.70;99.90;;;;;;5005082;28;20413;-75
2023/04/06 12:38:45;;;;;;;21.87;17.90;;;13.50;99.90;;;;;;5005856;28;20467;-74
2023/04/06 12:41:11;;;;;;;21.77;17.03;;;13.60;99.90;;;;;;5005993;28;20779;-74
2023/04/06 12:43:37;;;;;;;20.23;17.45;;;13.30;99.90;;;;;;5004332;28;20483;-75